sensor_id;sensor_type;location;lat;lon;timestamp;pressure;altitude;pressure_sealevel;temperature;humidity
75543;BME280;64129;53.508;10.476;2023-06-10T00:01:51;101414.31;;;14.28;76.44
75543;BME280;64129;53.508;10.476;2023-06-10T00:04:21;101410.03;;;14.21;76.40
75543;BME280;64129;53.508;10.476;2023-06-10T00:06:48;101418.91;;;14.23;76.26
75543;BME280;64129;53.508;10.476;2023-06-10T00:09:15;101414.56;;;14.17;76.51
75543;BME280;64129;53.508;10.476;2023-06-10T00:11:42;101413.91;;;14.09;76.78
75543;BME280;64129;53.508;10.476;2023-06-10T00:14:09;101408.28;;;14.20;76.62
75543;BME280;64129;53.508;10.476;2023-06-10T00:16:36;101410.19;;;14.15;76.76
75543;BME280;64129;53.508;10.476;2023-06-10T00:19:03;101414.06;;;14.04;76.67
75543;BME280;64129;53.508;10.476;2023-06-10T00:21:31;101412.13;;;14.10;76.49
75543;BME280;64129;53.508;10.476;2023-06-10T00:24:04;101412.84;;;13.82;77.34
75543;BME280;64129;53.508;10.476;2023-06-10T00:26:31;101405.59;;;13.87;77.37
75543;BME280;64129;53.508;10.476;2023-06-10T00:28:59;101406.25;;;13.97;76.67
75543;BME280;64129;53.508;10.476;2023-06-10T00:31:26;101402.78;;;13.93;76.81
75543;BME280;64129;53.508;10.476;2023-06-10T00:33:53;101401.25;;;13.83;76.67
75543;BME280;64129;53.508;10.476;2023-06-10T00:36:20;101414.94;;;13.71;77.41
75543;BME280;64129;53.508;10.476;2023-06-10T00:38:47;101406.09;;;13.69;77.64
75543;BME280;64129;53.508;10.476;2023-06-10T00:41:14;101404.22;;;13.72;77.40
75543;BME280;64129;53.508;10.476;2023-06-10T00:43:40;101405.28;;;13.65;77.65
75543;BME280;64129;53.508;10.476;2023-06-10T00:46:07;101423.63;;;13.79;76.85
75543;BME280;64129;53.508;10.476;2023-06-10T00:48:33;101419.75;;;13.57;77.71
75543;BME280;64129;53.508;10.476;2023-06-10T00:51:00;101424.09;;;13.61;77.75
75543;BME280;64129;53.508;10.476;2023-06-10T00:53:27;101422.28;;;13.63;77.27
75543;BME280;64129;53.508;10.476;2023-06-10T00:55:54;101424.16;;;13.59;77.16
75543;BME280;64129;53.508;10.476;2023-06-10T00:58:21;101420.72;;;13.53;77.58
75543;BME280;64129;53.508;10.476;2023-06-10T01:00:48;101422.34;;;13.60;77.35
75543;BME280;64129;53.508;10.476;2023-06-10T01:03:16;101418.94;;;13.55;77.14
75543;BME280;64129;53.508;10.476;2023-06-10T01:05:44;101425.31;;;13.48;77.95
75543;BME280;64129;53.508;10.476;2023-06-10T01:08:32;101426.06;;;13.53;77.30
75543;BME280;64129;53.508;10.476;2023-06-10T01:11:00;101427.38;;;13.36;77.43
75543;BME280;64129;53.508;10.476;2023-06-10T01:13:29;101428.19;;;13.38;77.87
75543;BME280;64129;53.508;10.476;2023-06-10T01:15:57;101421.03;;;13.40;77.61
75543;BME280;64129;53.508;10.476;2023-06-10T01:18:29;101419.19;;;13.42;77.32
75543;BME280;64129;53.508;10.476;2023-06-10T01:20:57;101428.34;;;13.32;77.39
75543;BME280;64129;53.508;10.476;2023-06-10T01:23:24;101424.78;;;13.33;77.30
75543;BME280;64129;53.508;10.476;2023-06-10T01:26:00;101434.00;;;13.20;77.69
75543;BME280;64129;53.508;10.476;2023-06-10T01:28:31;101428.72;;;13.14;78.04
75543;BME280;64129;53.508;10.476;2023-06-10T01:31:30;101428.44;;;13.29;76.86
75543;BME280;64129;53.508;10.476;2023-06-10T01:34:07;101426.75;;;13.25;77.31
75543;BME280;64129;53.508;10.476;2023-06-10T01:36:35;101431.22;;;13.25;77.12
75543;BME280;64129;53.508;10.476;2023-06-10T01:39:03;101425.88;;;13.25;77.19
75543;BME280;64129;53.508;10.476;2023-06-10T01:41:31;101425.38;;;13.06;77.64
75543;BME280;64129;53.508;10.476;2023-06-10T01:43:58;101422.59;;;13.10;77.63
75543;BME280;64129;53.508;10.476;2023-06-10T01:46:25;101428.88;;;13.08;77.32
75543;BME280;64129;53.508;10.476;2023-06-10T01:48:51;101425.25;;;13.10;77.29
75543;BME280;64129;53.508;10.476;2023-06-10T01:51:18;101421.22;;;12.94;78.54
75543;BME280;64129;53.508;10.476;2023-06-10T01:53:44;101422.88;;;12.98;77.95
75543;BME280;64129;53.508;10.476;2023-06-10T01:56:11;101425.66;;;12.94;78.38
75543;BME280;64129;53.508;10.476;2023-06-10T01:58:43;101430.63;;;13.09;77.62
75543;BME280;64129;53.508;10.476;2023-06-10T02:01:10;101425.88;;;12.85;78.40
75543;BME280;64129;53.508;10.476;2023-06-10T02:03:37;101429.16;;;12.96;77.63
75543;BME280;64129;53.508;10.476;2023-06-10T02:06:03;101427.28;;;13.01;77.51
75543;BME280;64129;53.508;10.476;2023-06-10T02:08:30;101422.09;;;12.95;78.15
75543;BME280;64129;53.508;10.476;2023-06-10T02:15:11;101427.50;;;12.92;77.52
75543;BME280;64129;53.508;10.476;2023-06-10T02:17:38;101436.75;;;12.74;78.69
75543;BME280;64129;53.508;10.476;2023-06-10T02:20:05;101427.00;;;12.73;79.25
75543;BME280;64129;53.508;10.476;2023-06-10T02:22:33;101431.13;;;12.88;77.97
75543;BME280;64129;53.508;10.476;2023-06-10T02:25:00;101429.44;;;12.84;78.27
75543;BME280;64129;53.508;10.476;2023-06-10T02:27:26;101424.38;;;12.71;78.67
75543;BME280;64129;53.508;10.476;2023-06-10T02:29:54;101420.47;;;12.88;78.15
75543;BME280;64129;53.508;10.476;2023-06-10T02:32:21;101421.59;;;12.76;78.49
75543;BME280;64129;53.508;10.476;2023-06-10T02:34:47;101429.63;;;12.74;78.22
75543;BME280;64129;53.508;10.476;2023-06-10T02:37:15;101426.31;;;12.63;78.40
75543;BME280;64129;53.508;10.476;2023-06-10T02:39:43;101426.38;;;12.60;78.96
75543;BME280;64129;53.508;10.476;2023-06-10T02:42:10;101427.41;;;12.55;79.25
75543;BME280;64129;53.508;10.476;2023-06-10T02:44:37;101431.91;;;12.51;79.25
75543;BME280;64129;53.508;10.476;2023-06-10T02:47:05;101430.84;;;12.60;78.96
75543;BME280;64129;53.508;10.476;2023-06-10T02:49:33;101438.16;;;12.48;79.07
75543;BME280;64129;53.508;10.476;2023-06-10T02:52:02;101420.56;;;12.40;79.84
75543;BME280;64129;53.508;10.476;2023-06-10T02:54:28;101421.47;;;12.39;79.94
75543;BME280;64129;53.508;10.476;2023-06-10T02:56:56;101429.53;;;12.36;80.66
75543;BME280;64129;53.508;10.476;2023-06-10T02:59:25;101429.31;;;12.46;79.80
75543;BME280;64129;53.508;10.476;2023-06-10T03:01:53;101426.63;;;12.48;78.75
75543;BME280;64129;53.508;10.476;2023-06-10T03:04:21;101433.69;;;12.51;79.70
75543;BME280;64129;53.508;10.476;2023-06-10T03:06:57;101433.97;;;12.37;79.95
75543;BME280;64129;53.508;10.476;2023-06-10T03:09:29;101437.41;;;12.42;79.78
75543;BME280;64129;53.508;10.476;2023-06-10T03:11:58;101433.75;;;12.49;79.63
75543;BME280;64129;53.508;10.476;2023-06-10T03:14:25;101432.19;;;12.36;80.22
75543;BME280;64129;53.508;10.476;2023-06-10T03:16:52;101444.56;;;12.40;79.73
75543;BME280;64129;53.508;10.476;2023-06-10T03:19:21;101437.34;;;12.45;79.40
75543;BME280;64129;53.508;10.476;2023-06-10T03:21:57;101433.97;;;12.37;80.03
75543;BME280;64129;53.508;10.476;2023-06-10T03:24:24;101432.06;;;12.42;79.72
75543;BME280;64129;53.508;10.476;2023-06-10T03:26:51;101435.72;;;12.38;80.07
75543;BME280;64129;53.508;10.476;2023-06-10T03:29:18;101433.75;;;12.46;79.83
75543;BME280;64129;53.508;10.476;2023-06-10T03:31:45;101438.16;;;12.48;79.07
75543;BME280;64129;53.508;10.476;2023-06-10T03:34:12;101433.97;;;12.37;80.08
75543;BME280;64129;53.508;10.476;2023-06-10T03:36:38;101433.81;;;12.43;80.15
75543;BME280;64129;53.508;10.476;2023-06-10T03:39:08;101434.03;;;12.34;80.11
75543;BME280;64129;53.508;10.476;2023-06-10T03:41:36;101434.00;;;12.35;80.43
75543;BME280;64129;53.508;10.476;2023-06-10T03:44:02;101432.41;;;12.27;80.53
75543;BME280;64129;53.508;10.476;2023-06-10T03:46:30;101437.59;;;12.33;80.92
75543;BME280;64129;53.508;10.476;2023-06-10T03:48:57;101433.06;;;12.36;81.05
75543;BME280;64129;53.508;10.476;2023-06-10T03:51:27;101437.47;;;12.39;80.50
75543;BME280;64129;53.508;10.476;2023-06-10T03:53:54;101435.66;;;12.41;80.69
75543;BME280;64129;53.508;10.476;2023-06-10T03:56:20;101431.13;;;12.44;80.92
75543;BME280;64129;53.508;10.476;2023-06-10T03:58:48;101443.09;;;12.24;82.12
75543;BME280;64129;53.508;10.476;2023-06-10T04:01:14;101437.28;;;12.48;81.53
75543;BME280;64129;53.508;10.476;2023-06-10T04:03:41;101440.69;;;12.56;80.39
75543;BME280;64129;53.508;10.476;2023-06-10T04:06:10;101436.19;;;12.58;80.37
75543;BME280;64129;53.508;10.476;2023-06-10T04:08:36;101437.81;;;12.65;80.76
75543;BME280;64129;53.508;10.476;2023-06-10T04:11:03;101432.41;;;12.70;80.58
75543;BME280;64129;53.508;10.476;2023-06-10T04:13:30;101440.28;;;12.74;80.33
75543;BME280;64129;53.508;10.476;2023-06-10T04:15:58;101436.13;;;12.61;80.91
75543;BME280;64129;53.508;10.476;2023-06-10T04:18:25;101445.78;;;12.67;80.96
75543;BME280;64129;53.508;10.476;2023-06-10T04:20:54;101437.59;;;12.76;80.46
75543;BME280;64129;53.508;10.476;2023-06-10T04:23:21;101439.41;;;12.74;81.04
75543;BME280;64129;53.508;10.476;2023-06-10T04:25:48;101436.53;;;12.85;80.84
75543;BME280;64129;53.508;10.476;2023-06-10T04:28:15;101434.88;;;12.77;81.29
75543;BME280;64129;53.508;10.476;2023-06-10T04:30:43;101433.91;;;12.81;80.90
75543;BME280;64129;53.508;10.476;2023-06-10T04:33:11;101431.38;;;12.75;81.72
75543;BME280;64129;53.508;10.476;2023-06-10T04:35:39;101438.88;;;12.98;80.46
75543;BME280;64129;53.508;10.476;2023-06-10T04:38:07;101439.00;;;12.94;80.94
75543;BME280;64129;53.508;10.476;2023-06-10T04:40:34;101442.41;;;13.00;80.74
75543;BME280;64129;53.508;10.476;2023-06-10T04:43:01;101439.69;;;13.02;80.69
75543;BME280;64129;53.508;10.476;2023-06-10T04:45:28;101447.44;;;13.12;80.51
75543;BME280;64129;53.508;10.476;2023-06-10T04:47:56;101444.66;;;13.20;80.01
75543;BME280;64129;53.508;10.476;2023-06-10T04:50:25;101449.78;;;13.29;80.25
75543;BME280;64129;53.508;10.476;2023-06-10T04:52:52;101451.75;;;13.21;79.99
75543;BME280;64129;53.508;10.476;2023-06-10T04:55:18;101446.16;;;13.32;79.92
75543;BME280;64129;53.508;10.476;2023-06-10T04:57:45;101447.75;;;13.39;78.92
75543;BME280;64129;53.508;10.476;2023-06-10T05:00:12;101448.72;;;13.36;80.22
75543;BME280;64129;53.508;10.476;2023-06-10T05:02:39;101444.06;;;13.45;79.93
75543;BME280;64129;53.508;10.476;2023-06-10T05:05:06;101445.72;;;13.49;79.99
75543;BME280;64129;53.508;10.476;2023-06-10T05:07:33;101435.91;;;13.51;79.45
75543;BME280;64129;53.508;10.476;2023-06-10T05:10:00;101443.47;;;13.69;78.80
75543;BME280;64129;53.508;10.476;2023-06-10T05:12:26;101441.50;;;13.76;78.07
75543;BME280;64129;53.508;10.476;2023-06-10T05:14:53;101439.88;;;13.70;78.40
75543;BME280;64129;53.508;10.476;2023-06-10T05:17:20;101446.81;;;13.77;78.37
75543;BME280;64129;53.508;10.476;2023-06-10T05:19:46;101450.03;;;13.91;78.39
75543;BME280;64129;53.508;10.476;2023-06-10T05:22:13;101450.16;;;13.85;78.29
75543;BME280;64129;53.508;10.476;2023-06-10T05:24:42;101445.69;;;13.86;77.48
75543;BME280;64129;53.508;10.476;2023-06-10T05:27:10;101453.19;;;14.05;77.68
75543;BME280;64129;53.508;10.476;2023-06-10T05:29:37;101459.47;;;14.04;77.62
75543;BME280;64129;53.508;10.476;2023-06-10T05:32:04;101454.03;;;14.08;76.84
75543;BME280;64129;53.508;10.476;2023-06-10T05:34:31;101451.28;;;14.11;77.45
75543;BME280;64129;53.508;10.476;2023-06-10T05:36:58;101450.00;;;14.25;76.57
75543;BME280;64129;53.508;10.476;2023-06-10T05:39:24;101457.06;;;14.28;75.28
75543;BME280;64129;53.508;10.476;2023-06-10T05:41:51;101454.25;;;14.32;76.12
75543;BME280;64129;53.508;10.476;2023-06-10T05:44:18;101452.25;;;14.41;75.37
75543;BME280;64129;53.508;10.476;2023-06-10T05:46:44;101452.06;;;14.48;74.67
75543;BME280;64129;53.508;10.476;2023-06-10T05:49:11;101448.16;;;14.89;74.04
75543;BME280;64129;53.508;10.476;2023-06-10T05:51:37;101443.97;;;14.81;74.45
75543;BME280;64129;53.508;10.476;2023-06-10T05:54:04;101441.69;;;14.98;74.20
75543;BME280;64129;53.508;10.476;2023-06-10T05:56:31;101435.84;;;15.13;73.34
75543;BME280;64129;53.508;10.476;2023-06-10T05:58:57;101434.97;;;15.13;73.78
75543;BME280;64129;53.508;10.476;2023-06-10T06:01:24;101434.22;;;15.37;71.95
75543;BME280;64129;53.508;10.476;2023-06-10T06:03:50;101429.03;;;15.59;72.16
75543;BME280;64129;53.508;10.476;2023-06-10T06:06:18;101439.75;;;15.59;71.45
75543;BME280;64129;53.508;10.476;2023-06-10T06:08:46;101436.41;;;15.51;72.48
75543;BME280;64129;53.508;10.476;2023-06-10T06:11:13;101439.88;;;15.54;72.30
75543;BME280;64129;53.508;10.476;2023-06-10T06:13:40;101432.81;;;15.52;73.21
75543;BME280;64129;53.508;10.476;2023-06-10T06:16:08;101437.50;;;15.73;71.38
75543;BME280;64129;53.508;10.476;2023-06-10T06:18:34;101439.88;;;15.82;71.34
75543;BME280;64129;53.508;10.476;2023-06-10T06:21:01;101441.81;;;16.04;70.90
75543;BME280;64129;53.508;10.476;2023-06-10T06:23:28;101437.75;;;15.92;71.85
75543;BME280;64129;53.508;10.476;2023-06-10T06:25:54;101442.31;;;15.88;70.87
75543;BME280;64129;53.508;10.476;2023-06-10T06:28:21;101435.38;;;16.09;70.85
75543;BME280;64129;53.508;10.476;2023-06-10T06:30:48;101436.47;;;16.04;70.39
75543;BME280;64129;53.508;10.476;2023-06-10T06:33:15;101434.38;;;16.12;70.51
75543;BME280;64129;53.508;10.476;2023-06-10T06:35:41;101436.50;;;16.27;69.63
75543;BME280;64129;53.508;10.476;2023-06-10T06:38:08;101433.94;;;16.24;70.51
75543;BME280;64129;53.508;10.476;2023-06-10T06:40:34;101435.91;;;16.19;70.93
75543;BME280;64129;53.508;10.476;2023-06-10T06:43:01;101436.66;;;16.47;68.71
75543;BME280;64129;53.508;10.476;2023-06-10T06:45:46;101439.94;;;16.56;69.13
75543;BME280;64129;53.508;10.476;2023-06-10T06:48:12;101440.22;;;16.73;69.28
75543;BME280;64129;53.508;10.476;2023-06-10T06:50:39;101438.94;;;16.83;68.28
75543;BME280;64129;53.508;10.476;2023-06-10T06:53:08;101436.31;;;16.81;68.74
75543;BME280;64129;53.508;10.476;2023-06-10T06:55:34;101439.84;;;17.05;69.07
75543;BME280;64129;53.508;10.476;2023-06-10T06:58:01;101443.97;;;17.14;68.03
75543;BME280;64129;53.508;10.476;2023-06-10T07:00:30;101440.19;;;17.20;67.98
75543;BME280;64129;53.508;10.476;2023-06-10T07:02:58;101437.50;;;17.20;65.02
75543;BME280;64129;53.508;10.476;2023-06-10T07:05:25;101440.88;;;17.25;67.48
75543;BME280;64129;53.508;10.476;2023-06-10T07:07:54;101439.25;;;17.42;67.09
75543;BME280;64129;53.508;10.476;2023-06-10T07:10:23;101439.63;;;17.55;66.82
75543;BME280;64129;53.508;10.476;2023-06-10T07:12:51;101444.28;;;17.94;65.35
75543;BME280;64129;53.508;10.476;2023-06-10T07:15:18;101443.63;;;17.89;66.32
75543;BME280;64129;53.508;10.476;2023-06-10T07:17:45;101447.78;;;17.96;65.90
75543;BME280;64129;53.508;10.476;2023-06-10T07:20:12;101452.44;;;18.13;65.14
75543;BME280;64129;53.508;10.476;2023-06-10T07:22:38;101459.50;;;18.35;63.89
75543;BME280;64129;53.508;10.476;2023-06-10T07:25:08;101454.31;;;18.51;62.12
75543;BME280;64129;53.508;10.476;2023-06-10T07:27:35;101454.91;;;18.58;63.87
75543;BME280;64129;53.508;10.476;2023-06-10T07:30:05;101450.63;;;18.93;63.54
75543;BME280;64129;53.508;10.476;2023-06-10T07:32:36;101460.28;;;18.58;63.74
75543;BME280;64129;53.508;10.476;2023-06-10T07:35:03;101452.56;;;18.70;63.15
75543;BME280;64129;53.508;10.476;2023-06-10T07:38:02;101450.03;;;19.05;61.74
75543;BME280;64129;53.508;10.476;2023-06-10T07:40:28;101440.59;;;18.96;61.93
75543;BME280;64129;53.508;10.476;2023-06-10T07:42:55;101452.78;;;19.41;61.57
75543;BME280;64129;53.508;10.476;2023-06-10T07:45:22;101456.16;;;19.46;61.68
75543;BME280;64129;53.508;10.476;2023-06-10T07:47:49;101453.16;;;19.52;61.22
75543;BME280;64129;53.508;10.476;2023-06-10T07:50:15;101449.91;;;19.82;61.02
75543;BME280;64129;53.508;10.476;2023-06-10T07:52:42;101450.69;;;19.84;59.32
75543;BME280;64129;53.508;10.476;2023-06-10T07:55:11;101450.53;;;20.04;59.82
75543;BME280;64129;53.508;10.476;2023-06-10T07:57:38;101450.28;;;20.09;59.11
75543;BME280;64129;53.508;10.476;2023-06-10T08:00:06;101454.44;;;20.16;58.48
75543;BME280;64129;53.508;10.476;2023-06-10T08:02:40;101453.56;;;20.15;58.76
75543;BME280;64129;53.508;10.476;2023-06-10T08:05:07;101453.66;;;20.48;57.94
75543;BME280;64129;53.508;10.476;2023-06-10T08:07:34;101459.19;;;20.78;58.34
75543;BME280;64129;53.508;10.476;2023-06-10T08:10:01;101461.16;;;20.59;57.53
75543;BME280;64129;53.508;10.476;2023-06-10T08:12:28;101453.84;;;20.61;57.79
75543;BME280;64129;53.508;10.476;2023-06-10T08:14:54;101452.53;;;21.01;56.59
75543;BME280;64129;53.508;10.476;2023-06-10T08:17:21;101440.53;;;21.07;56.55
75543;BME280;64129;53.508;10.476;2023-06-10T08:19:48;101443.72;;;21.31;55.74
75543;BME280;64129;53.508;10.476;2023-06-10T08:22:15;101439.06;;;21.48;55.59
75543;BME280;64129;53.508;10.476;2023-06-10T08:24:42;101442.44;;;21.68;54.91
75543;BME280;64129;53.508;10.476;2023-06-10T08:27:09;101439.31;;;21.60;54.40
75543;BME280;64129;53.508;10.476;2023-06-10T08:29:36;101442.75;;;21.93;54.45
75543;BME280;64129;53.508;10.476;2023-06-10T08:32:03;101447.78;;;21.99;54.59
75543;BME280;64129;53.508;10.476;2023-06-10T08:34:33;101448.63;;;22.16;53.82
75543;BME280;64129;53.508;10.476;2023-06-10T08:37:00;101444.19;;;22.15;52.81
75543;BME280;64129;53.508;10.476;2023-06-10T08:39:29;101447.53;;;22.34;53.72
75543;BME280;64129;53.508;10.476;2023-06-10T08:42:08;101444.63;;;22.51;53.14
75543;BME280;64129;53.508;10.476;2023-06-10T08:44:36;101442.69;;;22.53;53.07
75543;BME280;64129;53.508;10.476;2023-06-10T08:47:13;101448.06;;;22.97;52.69
75543;BME280;64129;53.508;10.476;2023-06-10T08:49:46;101442.91;;;23.07;51.04
75543;BME280;64129;53.508;10.476;2023-06-10T08:52:24;101445.22;;;23.27;51.44
75543;BME280;64129;53.508;10.476;2023-06-10T08:54:56;101437.53;;;22.93;53.58
75543;BME280;64129;53.508;10.476;2023-06-10T08:57:24;101446.41;;;23.09;53.09
75543;BME280;64129;53.508;10.476;2023-06-10T08:59:53;101439.09;;;23.38;51.18
75543;BME280;64129;53.508;10.476;2023-06-10T09:02:20;101433.56;;;23.40;51.73
75543;BME280;64129;53.508;10.476;2023-06-10T09:04:47;101435.84;;;23.46;51.12
75543;BME280;64129;53.508;10.476;2023-06-10T09:07:17;101439.19;;;23.22;50.82
75543;BME280;64129;53.508;10.476;2023-06-10T09:09:44;101433.00;;;23.34;52.33
75543;BME280;64129;53.508;10.476;2023-06-10T09:12:13;101434.03;;;24.00;51.18
75543;BME280;64129;53.508;10.476;2023-06-10T09:14:41;101435.56;;;23.77;49.66
75543;BME280;64129;53.508;10.476;2023-06-10T09:17:08;101431.84;;;24.05;49.93
75543;BME280;64129;53.508;10.476;2023-06-10T09:19:35;101430.34;;;24.14;49.83
75543;BME280;64129;53.508;10.476;2023-06-10T09:22:02;101439.03;;;24.19;49.57
75543;BME280;64129;53.508;10.476;2023-06-10T09:24:29;101438.66;;;24.38;48.79
75543;BME280;64129;53.508;10.476;2023-06-10T09:27:07;101442.13;;;24.52;49.32
75543;BME280;64129;53.508;10.476;2023-06-10T09:29:54;101439.03;;;25.21;48.44
75543;BME280;64129;53.508;10.476;2023-06-10T09:32:21;101442.53;;;24.97;48.07
75543;BME280;64129;53.508;10.476;2023-06-10T09:34:48;101440.69;;;25.10;48.75
75543;BME280;64129;53.508;10.476;2023-06-10T09:37:23;101444.34;;;25.35;48.47
75543;BME280;64129;53.508;10.476;2023-06-10T09:40:03;101431.84;;;25.56;46.79
75543;BME280;64129;53.508;10.476;2023-06-10T09:42:35;101436.25;;;25.09;47.72
75543;BME280;64129;53.508;10.476;2023-06-10T09:45:03;101430.50;;;25.38;47.76
75543;BME280;64129;53.508;10.476;2023-06-10T09:47:29;101430.84;;;25.57;47.70
75543;BME280;64129;53.508;10.476;2023-06-10T09:49:56;101427.91;;;26.19;46.63
75543;BME280;64129;53.508;10.476;2023-06-10T09:52:24;101442.38;;;26.08;45.97
75543;BME280;64129;53.508;10.476;2023-06-10T09:54:52;101430.31;;;26.00;46.11
75543;BME280;64129;53.508;10.476;2023-06-10T09:57:20;101430.44;;;26.33;47.62
75543;BME280;64129;53.508;10.476;2023-06-10T09:59:47;101420.56;;;26.44;45.39
75543;BME280;64129;53.508;10.476;2023-06-10T10:02:17;101427.06;;;26.98;44.47
75543;BME280;64129;53.508;10.476;2023-06-10T10:04:44;101426.06;;;26.99;44.24
75543;BME280;64129;53.508;10.476;2023-06-10T10:07:11;101423.94;;;27.03;44.29
75543;BME280;64129;53.508;10.476;2023-06-10T10:09:42;101424.16;;;26.55;44.70
75543;BME280;64129;53.508;10.476;2023-06-10T10:12:11;101419.81;;;27.31;43.12
75543;BME280;64129;53.508;10.476;2023-06-10T10:14:39;101420.69;;;27.75;42.39
75543;BME280;64129;53.508;10.476;2023-06-10T10:17:10;101422.94;;;27.70;42.77
75543;BME280;64129;53.508;10.476;2023-06-10T10:19:46;101415.69;;;27.91;42.16
75543;BME280;64129;53.508;10.476;2023-06-10T10:22:23;101420.81;;;27.41;42.79
75543;BME280;64129;53.508;10.476;2023-06-10T10:24:53;101430.50;;;26.56;43.36
75543;BME280;64129;53.508;10.476;2023-06-10T10:27:27;101422.41;;;28.08;42.26
75543;BME280;64129;53.508;10.476;2023-06-10T10:29:55;101425.59;;;28.45;41.53
75543;BME280;64129;53.508;10.476;2023-06-10T10:32:30;101434.00;;;28.63;40.42
75543;BME280;64129;53.508;10.476;2023-06-10T10:35:09;101417.91;;;28.18;40.97
75543;BME280;64129;53.508;10.476;2023-06-10T10:37:39;101431.88;;;28.87;42.56
75543;BME280;64129;53.508;10.476;2023-06-10T10:40:07;101436.53;;;29.06;40.08
75543;BME280;64129;53.508;10.476;2023-06-10T10:42:35;101434.75;;;28.85;40.04
75543;BME280;64129;53.508;10.476;2023-06-10T10:45:03;101423.41;;;29.00;40.23
75543;BME280;64129;53.508;10.476;2023-06-10T10:47:33;101432.03;;;28.95;40.10
75543;BME280;64129;53.508;10.476;2023-06-10T10:50:13;101433.88;;;29.25;38.89
75543;BME280;64129;53.508;10.476;2023-06-10T10:52:59;101430.84;;;29.28;38.84
75543;BME280;64129;53.508;10.476;2023-06-10T10:55:26;101419.28;;;29.84;38.79
75543;BME280;64129;53.508;10.476;2023-06-10T10:58:13;101426.44;;;29.46;38.32
75543;BME280;64129;53.508;10.476;2023-06-10T11:00:44;101424.81;;;29.34;38.90
75543;BME280;64129;53.508;10.476;2023-06-10T11:03:15;101436.38;;;29.47;39.01
75543;BME280;64129;53.508;10.476;2023-06-10T11:05:45;101411.28;;;29.42;38.78
75543;BME280;64129;53.508;10.476;2023-06-10T11:11:17;101418.56;;;30.01;38.27
75543;BME280;64129;53.508;10.476;2023-06-10T11:16:41;101411.19;;;29.63;36.80
75543;BME280;64129;53.508;10.476;2023-06-10T11:19:09;101408.19;;;29.95;37.95
75543;BME280;64129;53.508;10.476;2023-06-10T11:21:58;101421.16;;;30.22;38.06
75543;BME280;64129;53.508;10.476;2023-06-10T11:24:31;101404.78;;;30.96;35.54
75543;BME280;64129;53.508;10.476;2023-06-10T11:27:20;101404.22;;;30.93;35.44
75543;BME280;64129;53.508;10.476;2023-06-10T11:32:31;101406.84;;;30.85;36.29
75543;BME280;64129;53.508;10.476;2023-06-10T11:34:59;101410.22;;;31.06;35.50
75543;BME280;64129;53.508;10.476;2023-06-10T11:37:27;101396.78;;;31.03;34.82
75543;BME280;64129;53.508;10.476;2023-06-10T11:39:55;101397.69;;;31.31;34.78
75543;BME280;64129;53.508;10.476;2023-06-10T11:42:22;101385.66;;;31.50;34.76
75543;BME280;64129;53.508;10.476;2023-06-10T11:44:50;101392.88;;;31.51;35.09
75543;BME280;64129;53.508;10.476;2023-06-10T11:47:18;101387.44;;;30.96;35.19
75543;BME280;64129;53.508;10.476;2023-06-10T11:49:49;101395.22;;;32.17;33.77
75543;BME280;64129;53.508;10.476;2023-06-10T11:52:31;101386.81;;;31.92;33.54
75543;BME280;64129;53.508;10.476;2023-06-10T11:55:07;101389.66;;;32.52;33.42
75543;BME280;64129;53.508;10.476;2023-06-10T11:57:36;101385.97;;;32.18;32.80
75543;BME280;64129;53.508;10.476;2023-06-10T12:00:06;101388.00;;;31.72;33.23
75543;BME280;64129;53.508;10.476;2023-06-10T12:02:38;101382.72;;;31.61;34.12
75543;BME280;64129;53.508;10.476;2023-06-10T12:05:14;101377.66;;;31.39;33.98
75543;BME280;64129;53.508;10.476;2023-06-10T12:07:41;101367.69;;;32.09;32.61
75543;BME280;64129;53.508;10.476;2023-06-10T12:10:08;101380.41;;;32.10;33.68
75543;BME280;64129;53.508;10.476;2023-06-10T12:12:48;101376.44;;;32.82;32.60
75543;BME280;64129;53.508;10.476;2023-06-10T12:15:23;101386.63;;;32.64;32.62
75543;BME280;64129;53.508;10.476;2023-06-10T12:17:50;101380.75;;;32.58;31.55
75543;BME280;64129;53.508;10.476;2023-06-10T12:20:31;101380.13;;;32.39;31.98
75543;BME280;64129;53.508;10.476;2023-06-10T12:23:08;101383.19;;;32.36;32.78
75543;BME280;64129;53.508;10.476;2023-06-10T12:25:35;101378.50;;;32.88;31.98
75543;BME280;64129;53.508;10.476;2023-06-10T12:28:05;101375.53;;;33.24;31.61
75543;BME280;64129;53.508;10.476;2023-06-10T12:30:32;101376.06;;;32.25;31.54
75543;BME280;64129;53.508;10.476;2023-06-10T12:32:59;101382.91;;;32.73;31.56
75543;BME280;64129;53.508;10.476;2023-06-10T12:35:27;101365.63;;;33.31;31.16
75543;BME280;64129;53.508;10.476;2023-06-10T12:37:58;101359.78;;;33.34;29.91
75543;BME280;64129;53.508;10.476;2023-06-10T12:40:33;101366.53;;;32.97;31.58
75543;BME280;64129;53.508;10.476;2023-06-10T12:43:00;101361.59;;;33.17;30.27
75543;BME280;64129;53.508;10.476;2023-06-10T12:45:28;101349.03;;;33.23;29.64
75543;BME280;64129;53.508;10.476;2023-06-10T12:48:10;101350.47;;;33.35;29.63
75543;BME280;64129;53.508;10.476;2023-06-10T12:50:41;101348.94;;;33.81;29.03
75543;BME280;64129;53.508;10.476;2023-06-10T12:53:09;101351.84;;;32.54;30.27
75543;BME280;64129;53.508;10.476;2023-06-10T12:55:38;101336.41;;;34.03;28.29
75543;BME280;64129;53.508;10.476;2023-06-10T12:58:04;101337.78;;;33.91;28.46
75543;BME280;64129;53.508;10.476;2023-06-10T13:00:31;101341.53;;;34.38;29.29
75543;BME280;64129;53.508;10.476;2023-06-10T13:03:00;101344.19;;;33.08;29.05